Time;durP1;ratioP1;P1;durP2;ratioP2;P2;SDS_P1;SDS_P2;PMS_P1;PMS_P2;Temp;Humidity;BMP_temperature;BMP_pressure;BME280_temperature;BME280_humidity;BME280_pressure;Samples;Min_cycle;Max_cycle;Signal;HPM_P1;HPM_P2
2022/06/05 00:02:01;;;;;;;3.35;1.70;;;18.20;60.90;;;;;;4790120;29;20047;-84
2022/06/05 00:04:53;;;;;;;3.33;2.05;;;18.20;61.00;;;;;;4811080;29;20496;-84
2022/06/05 00:07:45;;;;;;;4.22;2.22;;;18.20;61.00;;;;;;4775466;30;20043;-84
2022/06/05 00:10:22;;;;;;;5.40;1.85;;;18.20;61.00;;;;;;4787866;29;20051;-84
2022/06/05 00:12:57;;;;;;;5.47;2.28;;;18.20;61.20;;;;;;4787838;29;20492;-84
2022/06/05 00:15:24;;;;;;;3.75;2.10;;;18.10;61.30;;;;;;4787373;30;20066;-84
2022/06/05 00:17:51;;;;;;;5.03;2.05;;;18.10;61.30;;;;;;4787435;29;20077;-84
2022/06/05 00:20:18;;;;;;;3.15;2.15;;;18.10;61.40;;;;;;4787033;30;20108;-84
2022/06/05 00:22:46;;;;;;;3.40;1.95;;;18.10;61.50;;;;;;4793786;29;20042;-83
2022/06/05 00:25:13;;;;;;;5.38;2.10;;;18.10;61.60;;;;;;4793410;29;20463;-84
2022/06/05 00:27:56;;;;;;;3.92;2.30;;;18.10;61.70;;;;;;4786645;29;20047;-83
2022/06/05 00:30:59;;;;;;;3.97;2.47;;;18.10;61.80;;;;;;4802051;29;20080;-84
2022/06/05 00:33:37;;;;;;;3.88;2.03;;;18.00;61.90;;;;;;4767192;29;20523;-84
2022/06/05 00:36:24;;;;;;;4.00;2.25;;;18.00;62.00;;;;;;4806626;29;20059;-84
2022/06/05 00:39:24;;;;;;;3.50;1.98;;;18.00;62.10;;;;;;4786852;29;20554;-84
2022/06/05 00:42:13;;;;;;;5.40;2.75;;;17.90;62.20;;;;;;4786983;30;20047;-84
2022/06/05 00:44:47;;;;;;;5.18;2.38;;;17.90;62.40;;;;;;4772060;30;20082;-84
2022/06/05 00:47:18;;;;;;;4.63;2.30;;;17.80;62.50;;;;;;4808241;29;20116;-84
2022/06/05 00:49:59;;;;;;;3.72;2.50;;;17.80;62.60;;;;;;4787051;30;20150;-83
2022/06/05 00:52:30;;;;;;;4.57;2.00;;;17.80;62.70;;;;;;4785931;29;20063;-84
2022/06/05 00:54:57;;;;;;;5.80;2.45;;;17.80;62.80;;;;;;4786592;29;20055;-84
2022/06/05 00:57:32;;;;;;;3.45;1.92;;;17.70;62.80;;;;;;4786405;29;20055;-84
2022/06/05 01:00:01;;;;;;;4.25;2.13;;;17.70;62.80;;;;;;4771375;30;20120;-84
2022/06/05 01:02:29;;;;;;;6.07;2.60;;;17.70;63.10;;;;;;4786348;29;20055;-84
2022/06/05 01:04:56;;;;;;;4.47;2.50;;;17.60;63.70;;;;;;4791233;29;20142;-83
2022/06/05 01:07:23;;;;;;;3.80;2.38;;;17.60;63.20;;;;;;4786191;29;20047;-83
2022/06/05 01:09:52;;;;;;;4.55;2.60;;;17.60;63.30;;;;;;4790970;29;20074;-83
2022/06/05 01:12:25;;;;;;;3.80;2.20;;;17.60;63.40;;;;;;4794315;29;20066;-84
2022/06/05 01:14:58;;;;;;;5.40;2.15;;;17.50;63.40;;;;;;4786005;29;20055;-83
2022/06/05 01:17:39;;;;;;;4.43;2.22;;;17.50;63.50;;;;;;4788529;29;20149;-83
2022/06/05 01:20:46;;;;;;;5.85;2.60;;;17.50;64.00;;;;;;4786339;30;20112;-84
2022/06/05 01:23:37;;;;;;;5.43;2.42;;;17.50;63.70;;;;;;4801060;29;20047;-83
2022/06/05 01:26:16;;;;;;;3.60;2.40;;;17.40;63.90;;;;;;4801350;29;20107;-82
2022/06/05 01:29:01;;;;;;;4.53;2.30;;;17.40;63.90;;;;;;4785838;29;20498;-83
2022/06/05 01:31:48;;;;;;;4.28;2.40;;;17.40;64.00;;;;;;4790501;29;20506;-83
2022/06/05 01:34:33;;;;;;;5.35;2.45;;;17.30;64.00;;;;;;4799839;29;20058;-83
2022/06/05 01:37:14;;;;;;;3.65;2.10;;;17.30;64.30;;;;;;4790663;29;20081;-82
2022/06/05 01:39:47;;;;;;;4.75;2.45;;;17.20;64.30;;;;;;4785533;29;20567;-83
2022/06/05 01:42:30;;;;;;;5.13;2.42;;;17.20;64.50;;;;;;4785984;30;20043;-83
2022/06/05 01:45:01;;;;;;;4.57;2.55;;;17.20;64.70;;;;;;4800925;29;20483;-83
2022/06/05 01:47:39;;;;;;;3.95;2.47;;;17.10;65.00;;;;;;4800927;29;20568;-83
2022/06/05 01:50:35;;;;;;;4.43;2.75;;;17.00;65.20;;;;;;4786071;29;20080;-82
2022/06/05 01:53:12;;;;;;;4.07;2.30;;;17.00;65.30;;;;;;4786067;29;20055;-82
2022/06/05 01:55:45;;;;;;;3.78;2.47;;;17.00;65.30;;;;;;4787209;29;20040;-83
2022/06/05 01:58:16;;;;;;;4.57;2.88;;;17.00;65.30;;;;;;4787632;30;20055;-83
2022/06/05 02:00:49;;;;;;;3.72;2.28;;;17.00;65.50;;;;;;4810692;29;20055;-83
2022/06/05 02:03:24;;;;;;;4.38;2.17;;;17.00;65.50;;;;;;4825082;29;20042;-83
2022/06/05 02:05:56;;;;;;;4.47;2.30;;;17.00;65.60;;;;;;4800938;29;20142;-83
2022/06/05 02:08:38;;;;;;;3.70;2.47;;;16.90;65.60;;;;;;4810149;29;20134;-83
2022/06/05 02:11:14;;;;;;;4.65;2.35;;;16.90;65.80;;;;;;4796702;29;20059;-83
2022/06/05 02:13:42;;;;;;;4.15;2.22;;;16.90;65.90;;;;;;4785765;29;20062;-83
2022/06/05 02:16:09;;;;;;;5.15;2.38;;;16.80;65.90;;;;;;4785927;30;20142;-83
2022/06/05 02:18:37;;;;;;;4.13;2.30;;;16.80;66.10;;;;;;4785735;30;20498;-83
2022/06/05 02:21:04;;;;;;;3.97;2.63;;;16.80;66.20;;;;;;4786142;29;20184;-83
2022/06/05 02:23:34;;;;;;;5.43;2.35;;;16.80;66.20;;;;;;4785681;30;20422;-83
2022/06/05 02:26:03;;;;;;;4.28;2.70;;;16.80;66.40;;;;;;4785956;29;20494;-83
2022/06/05 02:28:30;;;;;;;5.15;2.88;;;16.70;66.40;;;;;;4796065;29;20525;-83
2022/06/05 02:31:16;;;;;;;4.00;2.47;;;16.70;66.60;;;;;;4790240;29;20052;-82
2022/06/05 02:33:43;;;;;;;4.47;2.78;;;16.70;66.80;;;;;;4795006;29;20486;-83
2022/06/05 02:36:27;;;;;;;5.40;2.80;;;16.60;67.00;;;;;;4785762;30;20097;-83
2022/06/05 02:39:16;;;;;;;6.00;3.50;;;16.50;67.30;;;;;;4800401;29;20123;-82
2022/06/05 02:41:54;;;;;;;6.45;3.13;;;16.50;67.50;;;;;;4785480;29;20051;-83
2022/06/05 02:44:31;;;;;;;4.90;3.05;;;16.40;67.70;;;;;;4786845;29;20078;-83
2022/06/05 02:47:20;;;;;;;5.30;3.17;;;16.40;67.90;;;;;;4788380;29;20208;-83
2022/06/05 02:49:58;;;;;;;5.07;2.90;;;16.30;67.90;;;;;;4800923;29;20055;-83
2022/06/05 02:52:25;;;;;;;4.50;3.25;;;16.30;68.00;;;;;;4813852;29;20059;-84
2022/06/05 02:55:01;;;;;;;5.88;3.40;;;16.30;68.30;;;;;;4787989;29;20079;-83
2022/06/05 02:57:28;;;;;;;5.22;3.28;;;16.20;68.40;;;;;;4773347;30;20094;-83
2022/06/05 02:59:55;;;;;;;7.68;3.72;;;16.20;68.50;;;;;;4801134;29;20051;-84
2022/06/05 03:05:08;;;;;;;4.97;3.10;;;16.20;68.90;;;;;;4798882;29;20502;-84
2022/06/05 03:07:35;;;;;;;6.72;4.43;;;16.10;69.00;;;;;;4788647;30;20123;-84
2022/06/05 03:10:03;;;;;;;6.63;3.80;;;16.10;69.30;;;;;;4773829;30;20048;-84
2022/06/05 03:12:30;;;;;;;5.97;3.75;;;16.00;69.40;;;;;;4803619;29;20086;-84
2022/06/05 03:15:01;;;;;;;6.70;3.40;;;16.00;69.40;;;;;;4794896;29;20060;-84
2022/06/05 03:17:29;;;;;;;6.18;3.58;;;16.00;69.50;;;;;;4787993;30;20146;-84
2022/06/05 03:19:57;;;;;;;6.70;3.35;;;16.00;69.60;;;;;;4773957;30;20689;-84
2022/06/05 03:22:25;;;;;;;8.20;4.03;;;16.00;69.70;;;;;;4789031;29;20182;-84
2022/06/05 03:24:53;;;;;;;6.85;3.80;;;15.90;69.80;;;;;;4788689;29;20048;-84
2022/06/05 03:27:20;;;;;;;5.38;3.45;;;15.90;69.80;;;;;;4791130;29;20089;-85
2022/06/05 03:29:48;;;;;;;5.85;3.30;;;16.00;69.80;;;;;;4791610;29;20101;-85
2022/06/05 03:32:18;;;;;;;6.95;3.97;;;15.90;69.90;;;;;;4788816;29;20109;-85
2022/06/05 03:34:45;;;;;;;5.85;4.00;;;15.90;70.30;;;;;;4776484;29;20050;-84
2022/06/05 03:37:12;;;;;;;6.25;3.97;;;15.80;70.60;;;;;;4796808;29;20056;-84
2022/06/05 03:39:38;;;;;;;8.38;4.75;;;15.80;70.70;;;;;;4773516;30;20138;-85
2022/06/05 03:42:06;;;;;;;6.78;4.05;;;15.80;70.70;;;;;;4788301;30;20060;-84
2022/06/05 03:44:37;;;;;;;7.25;4.90;;;15.80;70.70;;;;;;4787822;30;20051;-85
2022/06/05 03:47:05;;;;;;;6.50;3.88;;;15.80;70.70;;;;;;4794394;29;20080;-85
2022/06/05 03:49:34;;;;;;;10.80;4.05;;;15.80;70.60;;;;;;4779032;30;20112;-85
2022/06/05 03:52:02;;;;;;;6.30;3.67;;;15.90;70.60;;;;;;4803168;29;20063;-85
2022/06/05 03:54:29;;;;;;;6.15;3.80;;;15.90;70.70;;;;;;4788337;29;20059;-85
2022/06/05 03:56:57;;;;;;;7.35;3.88;;;15.90;70.90;;;;;;4787810;29;20055;-85
2022/06/05 03:59:24;;;;;;;6.90;3.65;;;15.80;70.80;;;;;;4789590;29;20051;-85
2022/06/05 04:01:51;;;;;;;5.18;2.97;;;15.90;70.90;;;;;;4787208;29;20111;-85
2022/06/05 04:04:21;;;;;;;6.35;2.97;;;15.90;70.90;;;;;;4773223;30;20259;-85
2022/06/05 04:06:48;;;;;;;6.75;4.43;;;15.90;70.80;;;;;;4773372;30;20118;-85
2022/06/05 04:09:15;;;;;;;5.30;3.20;;;15.90;70.80;;;;;;4773085;30;20509;-86
2022/06/05 04:11:44;;;;;;;6.90;3.78;;;16.00;70.80;;;;;;4773375;30;20499;-85
2022/06/05 04:14:11;;;;;;;8.00;3.83;;;16.00;70.80;;;;;;4787667;30;20085;-85
2022/06/05 04:16:40;;;;;;;5.20;3.17;;;16.00;70.70;;;;;;4773001;30;20112;-85
2022/06/05 04:19:08;;;;;;;6.70;3.13;;;16.00;70.60;;;;;;4787764;29;20514;-85
2022/06/05 04:21:37;;;;;;;8.98;3.47;;;16.10;70.70;;;;;;4792780;29;20048;-85
2022/06/05 04:24:09;;;;;;;5.35;3.42;;;16.10;70.70;;;;;;4787606;30;20051;-85
2022/06/05 04:26:36;;;;;;;6.28;3.40;;;16.10;70.60;;;;;;4798312;29;20499;-85
2022/06/05 04:29:03;;;;;;;5.88;3.45;;;16.20;70.70;;;;;;4787128;29;20509;-79
2022/06/05 04:31:33;;;;;;;5.65;3.70;;;16.10;70.60;;;;;;4772116;30;20078;-79
2022/06/05 04:34:09;;;;;;;5.38;4.00;;;16.20;70.60;;;;;;4772188;30;20055;-78
2022/06/05 04:36:37;;;;;;;7.93;3.75;;;16.20;70.70;;;;;;4787361;29;20059;-78
2022/06/05 04:39:04;;;;;;;5.63;3.67;;;16.20;70.70;;;;;;4786797;29;20059;-78
2022/06/05 04:41:32;;;;;;;4.90;3.15;;;16.20;70.50;;;;;;4786766;30;20087;-79
2022/06/05 04:43:59;;;;;;;5.63;3.78;;;16.30;71.10;;;;;;4795816;29;20047;-79
2022/06/05 04:46:29;;;;;;;6.35;3.70;;;16.30;71.10;;;;;;4798192;29;20426;-78
2022/06/05 04:48:57;;;;;;;6.72;3.40;;;16.30;70.40;;;;;;4801251;29;20066;-78
2022/06/05 04:51:24;;;;;;;7.00;3.58;;;16.40;70.40;;;;;;4771138;29;20067;-80
2022/06/05 04:53:53;;;;;;;4.55;3.15;;;16.40;70.30;;;;;;4786191;30;20048;-79
2022/06/05 04:56:24;;;;;;;7.20;3.78;;;16.50;70.30;;;;;;4801392;29;20075;-79
2022/06/05 04:58:51;;;;;;;4.75;3.00;;;16.50;70.10;;;;;;4801553;29;20047;-79
2022/06/05 05:01:21;;;;;;;4.53;3.40;;;16.60;70.10;;;;;;4801483;29;20100;-79
2022/06/05 05:03:52;;;;;;;6.72;3.78;;;16.70;70.00;;;;;;4786626;29;20104;-84
2022/06/05 05:06:20;;;;;;;6.03;3.47;;;16.70;69.90;;;;;;4789774;29;20134;-85
2022/06/05 05:08:47;;;;;;;5.65;3.15;;;16.70;69.80;;;;;;4793216;29;20069;-84
2022/06/05 05:11:15;;;;;;;5.18;3.42;;;16.80;69.80;;;;;;4786247;29;20059;-85
2022/06/05 05:13:43;;;;;;;5.97;3.40;;;16.80;69.70;;;;;;4770242;30;20048;-84
2022/06/05 05:16:10;;;;;;;6.05;3.13;;;16.90;69.60;;;;;;4786916;29;20135;-85
2022/06/05 05:18:37;;;;;;;4.95;3.33;;;16.90;69.40;;;;;;4786452;29;20063;-85
2022/06/05 05:21:10;;;;;;;5.07;2.90;;;17.00;69.40;;;;;;4778545;29;20649;-84
2022/06/05 05:23:38;;;;;;;4.43;2.95;;;17.10;69.30;;;;;;4802405;29;20083;-85
2022/06/05 05:26:12;;;;;;;7.40;3.80;;;17.00;69.20;;;;;;4818028;29;20047;-84
2022/06/05 05:28:40;;;;;;;6.47;3.88;;;17.10;69.20;;;;;;4787115;29;20058;-84
2022/06/05 05:31:17;;;;;;;5.40;3.17;;;17.10;69.20;;;;;;4786579;30;20073;-84
2022/06/05 05:33:49;;;;;;;4.38;2.72;;;17.10;69.10;;;;;;4786772;29;20051;-85
2022/06/05 05:36:18;;;;;;;5.80;3.30;;;17.10;69.10;;;;;;4801167;29;20062;-85
2022/06/05 05:44:21;;;;;;;6.72;3.63;;;17.20;69.10;;;;;;4792989;29;20054;-84
2022/06/05 05:46:48;;;;;;;5.72;3.70;;;17.10;69.20;;;;;;4800984;29;20119;-84
2022/06/05 05:49:15;;;;;;;5.22;3.60;;;17.10;69.20;;;;;;4786118;30;20063;-84
2022/06/05 05:51:43;;;;;;;5.18;3.08;;;17.10;69.10;;;;;;4785626;29;20060;-79
2022/06/05 05:54:11;;;;;;;5.35;3.33;;;17.10;69.10;;;;;;4785602;29;20146;-80
2022/06/05 05:56:39;;;;;;;6.13;3.95;;;17.10;69.10;;;;;;4785351;29;20052;-79
2022/06/05 05:59:07;;;;;;;6.75;4.07;;;17.10;69.10;;;;;;4785937;30;20047;-80
2022/06/05 06:01:35;;;;;;;4.93;3.33;;;17.10;69.20;;;;;;4770716;30;20092;-79
2022/06/05 06:04:02;;;;;;;5.78;3.25;;;17.10;69.20;;;;;;4785867;29;20062;-80
2022/06/05 06:06:32;;;;;;;5.03;3.38;;;17.10;69.30;;;;;;4790667;29;20175;-79
2022/06/05 06:09:00;;;;;;;5.32;3.03;;;17.00;69.20;;;;;;4790263;29;20079;-80
2022/06/05 06:11:27;;;;;;;4.32;3.03;;;17.10;69.20;;;;;;4784521;29;20459;-79
2022/06/05 06:13:54;;;;;;;4.63;2.92;;;17.10;69.10;;;;;;4784838;30;20141;-79
2022/06/05 06:16:21;;;;;;;6.45;3.13;;;17.10;69.10;;;;;;4788736;29;20133;-79
2022/06/05 06:18:48;;;;;;;5.68;3.70;;;17.10;69.00;;;;;;4800478;29;20523;-79
2022/06/05 06:21:15;;;;;;;7.57;3.25;;;17.20;69.10;;;;;;4780320;30;20524;-80
2022/06/05 06:23:43;;;;;;;5.82;3.03;;;17.20;69.10;;;;;;4785375;30;20130;-79
2022/06/05 06:26:10;;;;;;;5.22;2.90;;;17.20;68.90;;;;;;4773325;30;20079;-80
2022/06/05 06:28:38;;;;;;;5.07;2.95;;;17.30;68.90;;;;;;4788906;30;20128;-80
2022/06/05 06:31:10;;;;;;;4.97;3.22;;;17.30;68.80;;;;;;4788896;30;20048;-79
2022/06/05 06:33:38;;;;;;;5.63;3.28;;;17.40;68.80;;;;;;4787883;29;20106;-80
2022/06/05 06:36:09;;;;;;;6.45;3.80;;;17.40;68.70;;;;;;4789005;30;20055;-80
2022/06/05 06:38:57;;;;;;;4.55;2.85;;;17.40;68.60;;;;;;4798865;29;20443;-80
2022/06/05 06:41:23;;;;;;;6.22;2.30;;;17.50;68.60;;;;;;4775434;29;20150;-79
2022/06/05 06:44:03;;;;;;;4.97;3.45;;;17.50;68.50;;;;;;4773208;29;20112;-79
2022/06/05 06:46:39;;;;;;;4.13;2.63;;;17.60;68.50;;;;;;4799059;29;20173;-80
2022/06/05 06:49:07;;;;;;;4.60;3.13;;;17.60;68.30;;;;;;4773379;30;20114;-80
2022/06/05 06:51:34;;;;;;;3.80;2.75;;;17.70;68.30;;;;;;4788665;29;20086;-80
2022/06/05 06:54:01;;;;;;;4.93;3.05;;;17.80;68.20;;;;;;4797806;29;20108;-79
2022/06/05 06:56:31;;;;;;;4.85;3.03;;;17.90;68.10;;;;;;4790405;29;20051;-83
2022/06/05 06:58:59;;;;;;;5.55;3.42;;;17.90;68.00;;;;;;4804116;29;20058;-85
2022/06/05 07:01:27;;;;;;;4.70;2.80;;;18.00;67.90;;;;;;4793263;30;20071;-85
2022/06/05 07:03:54;;;;;;;3.58;2.30;;;18.10;67.70;;;;;;4783293;30;20059;-85
2022/06/05 07:06:21;;;;;;;3.65;2.50;;;18.20;67.60;;;;;;4793137;29;20109;-85
2022/06/05 07:08:49;;;;;;;5.10;2.85;;;18.30;67.40;;;;;;4816698;29;20070;-85
2022/06/05 07:11:17;;;;;;;4.07;2.65;;;18.40;67.20;;;;;;4791855;29;20146;-84
2022/06/05 07:13:48;;;;;;;3.90;2.60;;;18.50;67.00;;;;;;4792572;29;20564;-81
2022/06/05 07:16:16;;;;;;;3.72;2.60;;;18.60;66.80;;;;;;4797131;29;20506;-82
2022/06/05 07:18:44;;;;;;;3.03;2.03;;;18.70;66.50;;;;;;4779667;29;20062;-82
2022/06/05 07:21:20;;;;;;;5.88;2.90;;;18.90;66.40;;;;;;4788152;29;20186;-85
2022/06/05 07:23:48;;;;;;;3.15;2.22;;;19.00;66.20;;;;;;4800763;29;20453;-84
2022/06/05 07:26:18;;;;;;;4.40;2.63;;;19.10;66.00;;;;;;4787017;29;20051;-85
2022/06/05 07:28:46;;;;;;;2.97;2.10;;;19.20;65.80;;;;;;4788629;29;20058;-84
2022/06/05 07:31:15;;;;;;;4.38;2.85;;;19.30;65.60;;;;;;4790647;29;20047;-84
2022/06/05 07:33:42;;;;;;;3.97;2.70;;;19.40;65.50;;;;;;4767713;29;20116;-84
2022/06/05 07:36:13;;;;;;;4.13;2.50;;;19.40;65.30;;;;;;4786619;29;20075;-84
2022/06/05 07:38:41;;;;;;;4.57;2.75;;;19.50;65.10;;;;;;4777083;29;20062;-83
2022/06/05 07:41:29;;;;;;;3.95;2.80;;;19.60;65.00;;;;;;4788690;29;20127;-84
2022/06/05 07:43:56;;;;;;;4.32;2.22;;;19.70;64.90;;;;;;4795209;29;20051;-88
2022/06/05 07:46:24;;;;;;;3.75;2.75;;;19.80;64.70;;;;;;4788633;29;20047;-87
2022/06/05 07:48:51;;;;;;;3.20;2.47;;;19.90;64.50;;;;;;4773790;30;20055;-87
2022/06/05 07:54:27;;;;;;;3.05;2.28;;;20.00;64.20;;;;;;4793631;29;20047;-83
2022/06/05 07:57:01;;;;;;;;;;;20.20;64.10;;;;;;4787858;30;20150;-83
2022/06/05 07:59:31;;;;;;;4.75;2.20;;;20.10;64.00;;;;;;4772901;30;19966;-84
2022/06/05 08:02:03;;;;;;;3.22;2.00;;;20.20;64.00;;;;;;4787601;30;20538;-84
2022/06/05 08:04:33;;;;;;;2.90;1.77;;;20.30;63.70;;;;;;4787931;29;20053;-84
2022/06/05 08:07:00;;;;;;;3.03;1.98;;;20.40;63.50;;;;;;4800396;29;20126;-83
2022/06/05 08:09:28;;;;;;;3.65;1.85;;;20.60;63.30;;;;;;4786780;29;20788;-83
2022/06/05 08:11:55;;;;;;;2.75;2.20;;;20.70;63.10;;;;;;4805816;29;20161;-82
2022/06/05 08:14:23;;;;;;;2.47;1.63;;;20.80;62.80;;;;;;4787165;29;20055;-83
2022/06/05 08:16:51;;;;;;;3.50;2.42;;;20.90;62.60;;;;;;4774830;29;20055;-83
2022/06/05 08:19:21;;;;;;;3.95;2.05;;;21.10;62.40;;;;;;4788160;29;20083;-83
2022/06/05 08:21:49;;;;;;;4.82;2.33;;;21.20;62.10;;;;;;4787706;29;20059;-88
2022/06/05 08:24:16;;;;;;;4.25;2.50;;;21.30;62.00;;;;;;4787614;29;20054;-87
2022/06/05 08:26:43;;;;;;;2.78;2.05;;;21.50;61.80;;;;;;4798760;29;20126;-84
2022/06/05 08:29:10;;;;;;;5.00;2.50;;;21.50;61.60;;;;;;4772422;30;20071;-84
2022/06/05 08:31:38;;;;;;;5.32;2.53;;;21.60;61.40;;;;;;4801277;29;20556;-84
2022/06/05 08:34:07;;;;;;;3.05;2.22;;;21.60;61.40;;;;;;4785991;29;20149;-83
2022/06/05 08:36:34;;;;;;;4.20;2.95;;;21.70;61.30;;;;;;4787254;30;20503;-86
2022/06/05 08:42:09;;;;;;;3.65;2.67;;;21.90;61.00;;;;;;4787979;29;20083;-89
2022/06/05 08:44:45;;;;;;;2.90;2.10;;;22.00;60.70;;;;;;4798113;29;20081;-89
2022/06/05 08:47:29;;;;;;;3.20;2.10;;;22.20;60.50;;;;;;4787255;29;20051;-89
2022/06/05 08:50:03;;;;;;;3.10;2.00;;;22.40;60.20;;;;;;4787060;29;20059;-88
2022/06/05 08:52:42;;;;;;;3.70;2.47;;;22.60;59.90;;;;;;4787200;29;20059;-88
2022/06/05 08:55:17;;;;;;;3.25;2.45;;;22.70;59.70;;;;;;4800311;29;20508;-88
2022/06/05 08:57:58;;;;;;;3.08;2.10;;;22.80;59.70;;;;;;4803008;29;20061;-90
2022/06/05 09:00:44;;;;;;;3.63;2.22;;;22.90;59.40;;;;;;4790772;29;20057;-89
2022/06/05 09:03:43;;;;;;;2.75;2.05;;;23.10;59.30;;;;;;4787146;29;20048;-87
2022/06/05 09:06:39;;;;;;;4.03;3.47;;;23.20;59.10;;;;;;4795647;29;20112;-87
2022/06/05 09:09:15;;;;;;;3.17;1.95;;;23.30;58.90;;;;;;4787218;29;20081;-87
2022/06/05 09:12:14;;;;;;;3.72;2.50;;;23.30;58.80;;;;;;4793425;29;20051;-85
2022/06/05 09:15:07;;;;;;;3.75;2.60;;;23.50;58.80;;;;;;4756098;30;20055;-90
2022/06/05 09:17:36;;;;;;;4.65;3.03;;;23.50;58.60;;;;;;4787412;29;20059;-89
2022/06/05 09:20:03;;;;;;;3.75;2.80;;;23.60;58.60;;;;;;4786661;29;20103;-89
2022/06/05 09:22:43;;;;;;;3.47;2.42;;;23.70;58.40;;;;;;4786080;30;20081;-84
2022/06/05 09:25:39;;;;;;;3.95;3.00;;;23.80;58.40;;;;;;4786520;29;20051;-88
2022/06/05 09:28:52;;;;;;;3.20;2.33;;;23.90;58.20;;;;;;4811741;29;20516;-85
2022/06/05 09:31:34;;;;;;;3.38;2.58;;;24.00;58.00;;;;;;4759138;29;20050;-87
2022/06/05 09:34:05;;;;;;;;;;;24.20;57.90;;;;;;4809980;29;20069;-86
2022/06/05 09:36:33;;;;;;;3.05;2.10;;;24.30;57.80;;;;;;4771937;30;19976;-88
2022/06/05 09:39:26;;;;;;;2.58;1.83;;;24.30;57.70;;;;;;4771687;30;20132;-82
2022/06/05 09:42:14;;;;;;;3.67;2.28;;;24.50;57.50;;;;;;4770812;30;20058;-84
2022/06/05 09:45:08;;;;;;;2.80;2.13;;;24.60;57.30;;;;;;4804498;29;20510;-83
2022/06/05 09:47:52;;;;;;;2.75;2.22;;;24.60;57.30;;;;;;4798910;29;20055;-82
2022/06/05 09:50:25;;;;;;;2.58;2.00;;;24.60;57.30;;;;;;4788218;29;20054;-82
2022/06/05 09:52:53;;;;;;;2.40;1.92;;;24.50;57.30;;;;;;4771094;30;20058;-82
2022/06/05 09:55:26;;;;;;;2.78;2.03;;;24.50;57.40;;;;;;4770579;30;20059;-82
2022/06/05 09:58:24;;;;;;;2.65;1.73;;;24.60;57.40;;;;;;4770912;30;20055;-82
2022/06/05 10:01:13;;;;;;;2.00;1.48;;;24.60;57.40;;;;;;4792639;29;20059;-83
2022/06/05 10:03:42;;;;;;;2.70;1.58;;;24.50;57.50;;;;;;4798658;29;20063;-82
2022/06/05 10:06:28;;;;;;;3.47;1.73;;;24.50;57.60;;;;;;4812625;29;20478;-82
2022/06/05 10:09:14;;;;;;;2.22;1.50;;;24.50;57.60;;;;;;4779830;29;20059;-82
2022/06/05 10:11:57;;;;;;;2.42;1.77;;;24.50;57.60;;;;;;4794750;29;20418;-84
2022/06/05 10:14:53;;;;;;;2.25;1.58;;;24.40;57.70;;;;;;4790166;29;20074;-83
2022/06/05 10:17:26;;;;;;;2.40;1.83;;;24.30;57.80;;;;;;4802786;29;20089;-84
2022/06/05 10:20:15;;;;;;;2.42;1.90;;;24.20;58.00;;;;;;4789272;29;20174;-80
2022/06/05 10:23:00;;;;;;;2.28;1.60;;;24.20;58.00;;;;;;4802842;29;20108;-81
2022/06/05 10:25:39;;;;;;;2.47;1.67;;;24.10;58.10;;;;;;4776616;30;20043;-80
2022/06/05 10:28:19;;;;;;;2.10;1.52;;;24.10;58.20;;;;;;4790810;29;20787;-80
2022/06/05 10:31:01;;;;;;;1.98;1.52;;;24.00;58.30;;;;;;4789011;29;20074;-80
2022/06/05 10:33:49;;;;;;;2.20;1.67;;;24.00;58.30;;;;;;4792464;29;20057;-80
2022/06/05 10:36:49;;;;;;;2.20;1.67;;;24.00;58.30;;;;;;4789609;29;20059;-80
2022/06/05 10:39:51;;;;;;;3.25;1.65;;;24.00;58.40;;;;;;4815733;29;20058;-79
2022/06/05 10:42:33;;;;;;;2.10;1.50;;;23.90;58.30;;;;;;4786932;29;20061;-80
2022/06/05 10:45:16;;;;;;;2.83;2.35;;;23.80;58.40;;;;;;4803773;29;20470;-80
2022/06/05 10:47:57;;;;;;;3.13;1.85;;;23.80;58.50;;;;;;4798769;29;20043;-82
2022/06/05 10:50:45;;;;;;;2.47;1.90;;;23.70;58.70;;;;;;4776675;30;20055;-82
2022/06/05 10:53:25;;;;;;;2.08;1.75;;;23.70;58.70;;;;;;4788221;30;20412;-80
2022/06/05 10:56:34;;;;;;;2.42;1.90;;;23.60;58.70;;;;;;4797306;29;20055;-83
2022/06/05 10:59:16;;;;;;;2.38;1.60;;;23.60;58.70;;;;;;4792306;29;20056;-84
2022/06/05 11:02:15;;;;;;;2.50;1.95;;;23.50;58.80;;;;;;4816132;29;20067;-83
2022/06/05 11:05:00;;;;;;;2.75;2.10;;;23.50;58.80;;;;;;4803352;29;20043;-82
2022/06/05 11:07:39;;;;;;;2.38;1.90;;;23.40;58.90;;;;;;4792035;29;20051;-82
2022/06/05 11:10:18;;;;;;;2.33;1.80;;;23.40;58.90;;;;;;4790796;30;20547;-82
2022/06/05 11:16:05;;;;;;;2.40;1.95;;;23.40;59.10;;;;;;4811251;29;20062;-86
2022/06/05 11:18:42;;;;;;;3.03;2.10;;;23.30;59.10;;;;;;4798705;29;20055;-89
2022/06/05 11:21:11;;;;;;;4.05;2.10;;;23.30;59.00;;;;;;4796137;29;20059;-85
2022/06/05 11:23:49;;;;;;;1.80;1.40;;;23.30;59.10;;;;;;4804872;29;20118;-80
2022/06/05 11:26:35;;;;;;;2.38;2.00;;;23.30;59.10;;;;;;4804966;29;20100;-84
2022/06/05 11:29:18;;;;;;;2.78;1.95;;;23.30;59.20;;;;;;4781078;30;20521;-82
2022/06/05 11:31:53;;;;;;;2.42;2.03;;;23.30;59.20;;;;;;4795437;29;20046;-86
2022/06/05 11:34:41;;;;;;;2.47;2.03;;;23.20;59.20;;;;;;4807680;29;20116;-81
2022/06/05 11:37:17;;;;;;;2.65;1.85;;;23.20;59.20;;;;;;4788036;29;20051;-82
2022/06/05 11:40:19;;;;;;;2.17;1.73;;;23.20;59.30;;;;;;4803658;29;20066;-82
2022/06/05 11:43:14;;;;;;;2.60;1.88;;;23.10;59.30;;;;;;4803077;29;20055;-84
2022/06/05 11:45:53;;;;;;;2.47;1.90;;;23.10;59.50;;;;;;4788089;29;20437;-81
2022/06/05 11:48:27;;;;;;;2.00;1.70;;;23.00;59.50;;;;;;4787975;29;20063;-82
2022/06/05 11:51:05;;;;;;;2.10;1.70;;;23.00;59.60;;;;;;4805274;29;20059;-77
2022/06/05 11:54:07;;;;;;;2.53;2.05;;;23.00;59.60;;;;;;4808385;29;20063;-78
2022/06/05 11:56:40;;;;;;;2.42;1.90;;;23.00;59.80;;;;;;4764356;29;20112;-87
2022/06/05 11:59:28;;;;;;;3.15;1.70;;;22.90;60.00;;;;;;4795988;29;20047;-85
2022/06/05 12:02:14;;;;;;;2.20;1.70;;;22.80;60.00;;;;;;4794250;29;20055;-86
2022/06/05 12:05:04;;;;;;;2.03;1.70;;;22.80;60.20;;;;;;4790007;29;20047;-82
2022/06/05 12:07:32;;;;;;;2.30;1.85;;;22.80;60.40;;;;;;4802941;29;20051;-78
2022/06/05 12:10:06;;;;;;;2.28;1.80;;;22.60;60.60;;;;;;4788858;29;20134;-84
2022/06/05 12:13:02;;;;;;;2.47;1.83;;;22.60;60.80;;;;;;4787066;29;20935;-83
2022/06/05 12:15:55;;;;;;;2.88;2.05;;;22.60;61.10;;;;;;4774406;29;20058;-83
2022/06/05 12:18:29;;;;;;;2.55;1.77;;;22.50;61.20;;;;;;4772581;30;20090;-83
2022/06/05 12:21:09;;;;;;;2.50;1.92;;;22.50;61.50;;;;;;4790062;29;20051;-88
2022/06/05 12:23:57;;;;;;;2.72;1.80;;;22.60;61.70;;;;;;4783836;29;20133;-76
2022/06/05 12:26:39;;;;;;;2.70;2.28;;;22.60;61.70;;;;;;4793108;29;20107;-77
2022/06/05 12:29:31;;;;;;;3.92;2.92;;;22.70;61.80;;;;;;4802561;29;20066;-76
2022/06/05 12:32:09;;;;;;;3.55;2.67;;;22.80;61.90;;;;;;4783566;29;20479;-77
2022/06/05 12:35:14;;;;;;;3.92;3.45;;;22.70;62.20;;;;;;4792788;29;20502;-77
2022/06/05 12:38:04;;;;;;;3.05;2.60;;;22.70;62.50;;;;;;4764811;30;20444;-78
2022/06/05 12:40:44;;;;;;;3.15;2.83;;;22.50;62.90;;;;;;4786642;30;20415;-76
2022/06/05 12:43:21;;;;;;;4.07;2.80;;;22.50;63.50;;;;;;4802245;29;20110;-80
2022/06/05 12:45:56;;;;;;;3.95;3.35;;;22.40;64.00;;;;;;4779268;30;20047;-85
2022/06/05 12:48:27;;;;;;;4.03;2.90;;;22.20;64.50;;;;;;4772620;30;20464;-82
2022/06/05 12:51:07;;;;;;;4.20;3.20;;;22.10;65.00;;;;;;4801519;29;20047;-76
2022/06/05 12:53:46;;;;;;;3.47;2.92;;;22.00;65.50;;;;;;4805794;29;20292;-79
2022/06/05 12:56:31;;;;;;;4.72;3.47;;;21.90;66.00;;;;;;4808295;29;20059;-78
2022/06/05 12:59:12;;;;;;;4.20;3.22;;;21.80;66.30;;;;;;4801046;29;20051;-77
2022/06/05 13:01:58;;;;;;;3.33;2.90;;;21.80;66.60;;;;;;4771163;30;20051;-79
2022/06/05 13:04:51;;;;;;;5.13;3.03;;;21.80;66.80;;;;;;4786578;29;20053;-83
2022/06/05 13:07:22;;;;;;;4.20;3.30;;;21.90;67.10;;;;;;4801634;29;20043;-84
2022/06/05 13:09:59;;;;;;;3.28;2.85;;;21.90;67.20;;;;;;4783013;29;20057;-80
2022/06/05 13:12:36;;;;;;;4.28;3.25;;;21.90;67.40;;;;;;4789335;29;20104;-82
2022/06/05 13:15:25;;;;;;;4.00;3.30;;;22.00;67.50;;;;;;4801452;29;20052;-82
2022/06/05 13:18:17;;;;;;;3.70;3.10;;;22.00;67.70;;;;;;4791049;29;20051;-81
2022/06/05 13:21:29;;;;;;;3.97;3.17;;;22.00;68.50;;;;;;4785315;29;20072;-78
2022/06/05 13:24:43;;;;;;;4.00;3.10;;;22.00;68.00;;;;;;4776723;29;20834;-82
2022/06/05 13:27:51;;;;;;;4.07;3.38;;;22.00;68.20;;;;;;4754857;30;20297;-82
2022/06/05 13:30:27;;;;;;;4.20;3.10;;;22.10;68.30;;;;;;4791555;29;20428;-82
2022/06/05 13:33:04;;;;;;;4.28;3.67;;;22.10;68.50;;;;;;4783275;29;20051;-80
2022/06/05 13:35:45;;;;;;;4.22;3.60;;;22.10;68.70;;;;;;4791179;29;20128;-81
2022/06/05 13:38:25;;;;;;;3.93;3.40;;;22.20;68.90;;;;;;4785740;30;20415;-80
2022/06/05 13:41:04;;;;;;;4.72;3.20;;;22.20;68.90;;;;;;4812305;29;20383;-82
2022/06/05 13:43:38;;;;;;;3.88;3.30;;;22.30;69.10;;;;;;4786855;29;20545;-83
2022/06/05 13:46:30;;;;;;;4.50;3.65;;;22.40;69.10;;;;;;4786141;29;20050;-83
2022/06/05 13:49:27;;;;;;;5.03;4.22;;;22.40;69.20;;;;;;4791138;29;20047;-81
2022/06/05 13:52:17;;;;;;;4.40;3.80;;;22.40;69.50;;;;;;4784987;29;20051;-82